createdAt,value
2023-01-10T00:02:07.306Z,99419.78
2023-01-10T00:04:34.974Z,99421.56
2023-01-10T00:07:02.610Z,99419.00
2023-01-10T00:09:31.665Z,99391.44
2023-01-10T00:12:16.843Z,99434.75
2023-01-10T00:14:44.501Z,99427.84
2023-01-10T00:17:12.167Z,99452.16
2023-01-10T00:19:39.819Z,99458.25
2023-01-10T00:22:16.814Z,99467.00
2023-01-10T00:24:45.707Z,99473.94
2023-01-10T00:27:17.037Z,99487.91
2023-01-10T00:29:44.757Z,99484.41
2023-01-10T00:32:12.381Z,99483.59
2023-01-10T00:34:39.962Z,99493.97
2023-01-10T00:37:07.618Z,99506.19
2023-01-10T00:39:35.193Z,99508.78
2023-01-10T00:42:22.480Z,99507.06
2023-01-10T00:44:50.104Z,99515.78
2023-01-10T00:47:18.677Z,99517.56
2023-01-10T00:49:46.740Z,99530.66
2023-01-10T00:52:14.352Z,99524.53
2023-01-10T00:54:41.911Z,99528.03
2023-01-10T00:57:10.985Z,99541.97
2023-01-10T00:59:38.555Z,99539.38
2023-01-10T01:02:06.281Z,99548.94
2023-01-10T01:04:35.153Z,99548.13
2023-01-10T01:07:02.873Z,99555.97
2023-01-10T01:09:30.708Z,99562.06
2023-01-10T01:14:41.086Z,99570.78
2023-01-10T01:17:08.779Z,99579.50
2023-01-10T01:19:36.590Z,99567.38
2023-01-10T01:22:04.160Z,99577.78
2023-01-10T01:24:31.887Z,99587.34
2023-01-10T01:26:59.461Z,99592.56
2023-01-10T01:29:35.255Z,99595.19
2023-01-10T01:32:12.023Z,99601.28
2023-01-10T01:34:39.718Z,99603.91
2023-01-10T01:37:07.516Z,99614.38
2023-01-10T01:39:35.087Z,99617.88
2023-01-10T01:42:02.976Z,99620.47
2023-01-10T01:44:31.454Z,99604.81
2023-01-10T01:47:02.956Z,99620.53
2023-01-10T01:49:31.952Z,99624.88
2023-01-10T01:52:01.742Z,99601.44
2023-01-10T01:54:29.292Z,99630.13
2023-01-10T01:56:59.385Z,99634.47
2023-01-10T01:59:28.421Z,99641.41
2023-01-10T02:01:58.408Z,99647.50
2023-01-10T02:04:28.285Z,99629.25
2023-01-10T02:06:57.329Z,99650.09
2023-01-10T02:09:26.015Z,99621.44
2023-01-10T02:11:53.711Z,99663.13
2023-01-10T02:14:21.453Z,99659.66
2023-01-10T02:16:49.164Z,99658.81
2023-01-10T02:19:21.161Z,99638.84
2023-01-10T02:22:19.421Z,99659.66
2023-01-10T02:25:19.580Z,99664.03
2023-01-10T02:27:55.670Z,99666.66
2023-01-10T02:30:48.380Z,99664.91
2023-01-10T02:33:20.480Z,99670.13
2023-01-10T02:36:05.174Z,99673.66
2023-01-10T02:38:40.231Z,99681.47
2023-01-10T02:41:19.740Z,99668.41
2023-01-10T02:43:48.997Z,99672.78
2023-01-10T02:46:17.910Z,99682.38
2023-01-10T02:48:47.073Z,99685.81
2023-01-10T02:51:18.283Z,99675.41
2023-01-10T02:53:47.127Z,99643.28
2023-01-10T02:56:38.353Z,99676.28
2023-01-10T02:59:27.993Z,99676.31
2023-01-10T03:01:57.874Z,99687.63
2023-01-10T03:04:31.703Z,99697.22
2023-01-10T03:07:00.963Z,99698.09
2023-01-10T03:09:33.555Z,99701.56
2023-01-10T03:12:03.850Z,99686.78
2023-01-10T03:14:31.420Z,99696.34
2023-01-10T03:17:00.099Z,99640.69
2023-01-10T03:19:30.713Z,99665.91
2023-01-10T03:22:00.340Z,99697.25
2023-01-10T03:24:29.844Z,99712.00
2023-01-10T03:26:59.990Z,99705.06
2023-01-10T03:29:30.647Z,99688.56
2023-01-10T03:32:00.715Z,99727.66
2023-01-10T03:34:29.868Z,99735.47
2023-01-10T03:37:04.525Z,99739.81
2023-01-10T03:39:34.012Z,99754.59
2023-01-10T03:42:06.847Z,99752.00
2023-01-10T03:44:46.486Z,99751.13
2023-01-10T03:47:20.288Z,99725.06
2023-01-10T03:49:50.434Z,99715.47
2023-01-10T03:52:18.827Z,99732.00
2023-01-10T03:54:46.441Z,99754.59
2023-01-10T03:57:18.835Z,99755.47
2023-01-10T03:59:46.543Z,99756.38
2023-01-10T04:02:14.264Z,99776.38
2023-01-10T04:04:41.857Z,99773.72
2023-01-10T04:07:10.804Z,99775.47
2023-01-10T04:09:38.355Z,99793.75
2023-01-10T04:12:06.630Z,99803.34
2023-01-10T04:14:34.416Z,99801.56
2023-01-10T04:17:01.974Z,99796.38
2023-01-10T04:19:32.386Z,99806.81
2023-01-10T04:22:01.774Z,99805.09
2023-01-10T04:24:30.896Z,99802.44
2023-01-10T04:26:58.608Z,99803.34
2023-01-10T04:29:27.063Z,99805.94
2023-01-10T04:31:54.680Z,99818.13
2023-01-10T04:34:22.458Z,99815.50
2023-01-10T04:36:54.139Z,99813.78
2023-01-10T04:39:22.144Z,99766.72
2023-01-10T04:41:51.277Z,99819.84
2023-01-10T04:44:18.844Z,99813.75
2023-01-10T04:46:46.576Z,99818.13
2023-01-10T04:49:14.370Z,99825.94
2023-01-10T04:51:42.085Z,99819.84
2023-01-10T04:54:09.663Z,99836.38
2023-01-10T04:56:37.617Z,99831.16
2023-01-10T04:59:07.412Z,99838.13
2023-01-10T05:01:38.884Z,99838.13
2023-01-10T05:04:06.910Z,99835.53
2023-01-10T05:06:34.481Z,99838.13
2023-01-10T05:09:02.185Z,99837.25
2023-01-10T05:11:29.830Z,99848.56
2023-01-10T05:13:57.382Z,99830.28
2023-01-10T05:16:26.502Z,99844.19
2023-01-10T05:18:54.059Z,99846.81
2023-01-10T05:21:21.744Z,99848.56
2023-01-10T05:23:49.305Z,99852.91
2023-01-10T05:26:17.655Z,99859.84
2023-01-10T05:28:45.502Z,99865.09
2023-01-10T05:31:14.429Z,99869.44
2023-01-10T05:33:46.564Z,99863.34
2023-01-10T05:36:14.144Z,99868.56
2023-01-10T05:38:42.005Z,99874.66
2023-01-10T05:41:09.605Z,99872.03
2023-01-10T05:43:37.397Z,99869.44
2023-01-10T05:46:05.318Z,99868.56
2023-01-10T05:48:33.123Z,99874.66
2023-01-10T05:51:02.159Z,99882.47
2023-01-10T05:53:29.978Z,99889.44
2023-01-10T05:56:00.028Z,99892.06
2023-01-10T05:58:27.967Z,99902.50
2023-01-10T06:00:56.087Z,99905.09
2023-01-10T06:03:24.975Z,99895.53
2023-01-10T06:05:52.559Z,99905.13
2023-01-10T06:08:25.137Z,99902.50
2023-01-10T06:10:52.927Z,99905.13
2023-01-10T06:13:20.553Z,99897.28
2023-01-10T06:15:48.378Z,99909.47
2023-01-10T06:18:16.068Z,99911.19
2023-01-10T06:20:43.915Z,99913.81
2023-01-10T06:23:11.506Z,99926.84
2023-01-10T06:25:41.658Z,99935.56
2023-01-10T06:28:09.405Z,99936.44
2023-01-10T06:30:37.316Z,99949.50
2023-01-10T06:33:05.824Z,99957.34
2023-01-10T06:35:33.787Z,99949.47
2023-01-10T06:38:01.509Z,99938.16
2023-01-10T06:40:29.619Z,99958.19
2023-01-10T06:42:59.159Z,99952.94
2023-01-10T06:45:27.093Z,99959.06
2023-01-10T06:47:54.679Z,99966.03
2023-01-10T06:50:22.536Z,99967.75
2023-01-10T06:52:56.292Z,99967.75
2023-01-10T06:55:24.268Z,99977.31
2023-01-10T06:57:56.413Z,99978.19
2023-01-10T07:00:25.846Z,99981.66
2023-01-10T07:02:54.234Z,99982.53
2023-01-10T07:05:21.791Z,99990.38
2023-01-10T07:07:49.514Z,99999.94
2023-01-10T07:10:17.922Z,99980.75
2023-01-10T07:15:19.789Z,100006.03
2023-01-10T07:17:48.809Z,100008.66
2023-01-10T07:20:16.536Z,99990.34
2023-01-10T07:22:45.228Z,100017.34
2023-01-10T07:25:12.857Z,100018.22
2023-01-10T07:27:43.246Z,100010.38
2023-01-10T07:30:12.170Z,100019.09
2023-01-10T07:32:39.907Z,100026.06
2023-01-10T07:35:09.814Z,100013.00
2023-01-10T07:37:37.405Z,100025.19
2023-01-10T07:40:05.717Z,100031.28
2023-01-10T07:42:33.318Z,100033.03
2023-01-10T07:45:00.900Z,100031.31
2023-01-10T07:47:29.019Z,100043.50
2023-01-10T07:49:56.671Z,100046.97
2023-01-10T07:52:25.721Z,100047.84
2023-01-10T07:54:53.674Z,100042.63
2023-01-10T07:57:21.251Z,100052.19
2023-01-10T07:59:49.151Z,100054.81
2023-01-10T08:02:16.754Z,100062.63
2023-01-10T08:04:44.381Z,100059.16
2023-01-10T08:07:11.941Z,100069.56
2023-01-10T08:09:40.977Z,100073.94
2023-01-10T08:12:08.661Z,100075.66
2023-01-10T08:14:36.319Z,100075.66
2023-01-10T08:17:07.006Z,100087.84
2023-01-10T08:19:34.670Z,100089.59
2023-01-10T08:22:03.077Z,100092.16
2023-01-10T08:24:30.853Z,100085.22
2023-01-10T08:27:00.449Z,100052.94
2023-01-10T08:29:28.049Z,100089.59
2023-01-10T08:31:55.905Z,100093.09
2023-01-10T08:34:23.599Z,100107.03
2023-01-10T08:36:51.547Z,100106.16
2023-01-10T08:39:20.436Z,100107.03
2023-01-10T08:41:49.080Z,100104.41
2023-01-10T08:44:18.006Z,100113.13
2023-01-10T08:46:45.832Z,100055.56
2023-01-10T08:49:13.453Z,100102.69
2023-01-10T08:51:42.715Z,100107.94
2023-01-10T08:54:10.436Z,100111.41
2023-01-10T08:56:40.039Z,100112.31
2023-01-10T08:59:07.937Z,100109.69
2023-01-10T09:01:37.032Z,100090.50
2023-01-10T09:04:05.335Z,100118.47
2023-01-10T09:06:32.971Z,100113.25
2023-01-10T09:09:00.605Z,100117.59
2023-01-10T09:11:29.400Z,100097.56
2023-01-10T09:13:57.058Z,100115.88
2023-01-10T09:16:24.844Z,100118.47
2023-01-10T09:18:56.302Z,100124.59
2023-01-10T09:21:23.931Z,100126.38
2023-01-10T09:23:51.609Z,100123.75
2023-01-10T09:26:19.236Z,100130.75
2023-01-10T09:28:48.815Z,100130.78
2023-01-10T09:31:16.557Z,100134.28
2023-01-10T09:33:47.761Z,100118.63
2023-01-10T09:36:16.886Z,100115.13
2023-01-10T09:38:44.733Z,100112.38
2023-01-10T09:41:34.755Z,100114.69
2023-01-10T09:44:05.785Z,100082.34
2023-01-10T09:46:39.259Z,100117.84
2023-01-10T09:49:11.297Z,100119.66
2023-01-10T09:51:41.891Z,100111.00
2023-01-10T09:54:13.069Z,100118.97
2023-01-10T09:56:41.386Z,100127.69
2023-01-10T09:59:14.761Z,100141.63
2023-01-10T10:01:42.548Z,100133.69
2023-01-10T10:04:21.299Z,100132.84
2023-01-10T10:06:51.117Z,100133.72
2023-01-10T10:09:22.784Z,100140.47
2023-01-10T10:11:54.834Z,100107.28
2023-01-10T10:14:29.496Z,100101.09
2023-01-10T10:17:06.577Z,100140.03
2023-01-10T10:19:38.193Z,100096.28
2023-01-10T10:22:09.719Z,100118.06
2023-01-10T10:24:47.795Z,100104.47
2023-01-10T10:27:19.075Z,100120.25
2023-01-10T10:30:20.382Z,100132.75
2023-01-10T10:32:55.486Z,100111.59
2023-01-10T10:35:26.853Z,100119.00
2023-01-10T10:37:57.124Z,100115.59
2023-01-10T10:40:25.866Z,100120.47
2023-01-10T10:42:55.328Z,100112.28
2023-01-10T10:45:25.560Z,100097.16
2023-01-10T10:47:56.772Z,100119.94
2023-01-10T10:50:26.941Z,100110.50
2023-01-10T10:52:55.998Z,100124.66
2023-01-10T10:55:27.186Z,100099.34
2023-01-10T10:57:59.898Z,100092.25
2023-01-10T11:00:28.279Z,100094.94
2023-01-10T11:02:57.780Z,100089.59
2023-01-10T11:05:30.624Z,100052.16
2023-01-10T11:08:01.778Z,100084.69
2023-01-10T11:10:39.019Z,100081.47
2023-01-10T11:13:15.783Z,100076.22
2023-01-10T11:15:44.443Z,100064.53
2023-01-10T11:18:13.501Z,100079.25
2023-01-10T11:20:48.621Z,100070.97
2023-01-10T11:23:25.159Z,100078.31
2023-01-10T11:25:52.753Z,100079.56
2023-01-10T11:28:23.054Z,100080.75
2023-01-10T11:30:50.679Z,100075.69
2023-01-10T11:33:20.940Z,100074.13
2023-01-10T11:35:57.936Z,100074.16
2023-01-10T11:38:30.027Z,100067.25
2023-01-10T11:40:59.650Z,100075.22
2023-01-10T11:43:29.739Z,100009.13
2023-01-10T11:45:58.219Z,100079.72
2023-01-10T11:48:53.215Z,100067.50
2023-01-10T11:51:18.749Z,100063.19
2023-01-10T11:53:48.819Z,100063.19
2023-01-10T11:56:24.460Z,100056.19
2023-01-10T11:58:52.044Z,100062.28
2023-01-10T12:01:27.518Z,100051.81
2023-01-10T12:03:55.163Z,100034.38
2023-01-10T12:06:22.830Z,100043.91
2023-01-10T12:08:55.968Z,99990.81
2023-01-10T12:11:27.241Z,99999.53
2023-01-10T12:13:55.459Z,100024.78
2023-01-10T12:16:24.551Z,99981.38
2023-01-10T12:18:52.790Z,100041.41
2023-01-10T12:21:23.240Z,100029.19
2023-01-10T12:23:52.182Z,100026.63
2023-01-10T12:26:19.823Z,100031.03
2023-01-10T12:28:50.985Z,100030.16
2023-01-10T12:31:19.268Z,100040.66
2023-01-10T12:33:48.023Z,100020.66
2023-01-10T12:36:20.866Z,100002.38
2023-01-10T12:39:05.944Z,100005.84
2023-01-10T12:41:57.598Z,100033.69
2023-01-10T12:44:27.619Z,99926.69
2023-01-10T12:47:06.908Z,99979.78
2023-01-10T12:49:37.042Z,99997.13
2023-01-10T12:52:07.256Z,100023.22
2023-01-10T12:54:34.834Z,100020.59
2023-01-10T12:57:06.458Z,100035.41
2023-01-10T12:59:38.254Z,99961.34
2023-01-10T13:02:07.277Z,99954.41
2023-01-10T13:04:35.996Z,99984.81
2023-01-10T13:07:03.663Z,99959.56
2023-01-10T13:09:31.524Z,100003.06
2023-01-10T13:14:30.833Z,99983.03
2023-01-10T13:17:03.804Z,99977.81
2023-01-10T13:19:31.804Z,99977.03
2023-01-10T13:22:29.611Z,99970.94
2023-01-10T13:24:58.628Z,99964.97
2023-01-10T13:27:27.651Z,99971.81
2023-01-10T13:29:56.866Z,99975.38
2023-01-10T13:32:25.647Z,99969.25
2023-01-10T13:34:53.479Z,99964.03
2023-01-10T13:37:23.833Z,99987.63
2023-01-10T13:39:52.990Z,99958.84
2023-01-10T13:42:44.584Z,99972.78
2023-01-10T13:45:38.432Z,99954.50
2023-01-10T13:48:21.936Z,99944.97
2023-01-10T13:50:51.352Z,99961.50
2023-01-10T13:53:52.204Z,99947.59
2023-01-10T13:56:33.769Z,99945.00
2023-01-10T13:59:19.358Z,99948.47
2023-01-10T14:02:10.437Z,99938.94
2023-01-10T14:04:39.702Z,99948.53
2023-01-10T14:07:08.315Z,99939.84
2023-01-10T14:09:45.353Z,99938.97
2023-01-10T14:12:24.928Z,99928.53
2023-01-10T14:14:55.545Z,99928.53
2023-01-10T14:17:26.259Z,99911.97
2023-01-10T14:20:20.166Z,99913.72
2023-01-10T14:22:58.831Z,99915.47
2023-01-10T14:25:26.804Z,99933.78
2023-01-10T14:27:54.499Z,99924.19
2023-01-10T14:30:23.110Z,99885.91
2023-01-10T14:32:52.695Z,99914.59
2023-01-10T14:35:24.789Z,99897.19
2023-01-10T14:37:54.112Z,99898.06
2023-01-10T14:40:28.026Z,99881.56
2023-01-10T14:42:58.397Z,99885.84
2023-01-10T14:45:31.675Z,99874.56
2023-01-10T14:48:00.602Z,99882.41
2023-01-10T14:50:30.452Z,99886.78
2023-01-10T14:52:58.059Z,99879.78
2023-01-10T14:55:25.636Z,99874.56
2023-01-10T14:57:57.024Z,99860.66
2023-01-10T15:00:29.044Z,99852.81
2023-01-10T15:02:57.586Z,99869.34
2023-01-10T15:05:26.982Z,99871.09
2023-01-10T15:07:56.933Z,99853.69
2023-01-10T15:10:25.716Z,99829.38
2023-01-10T15:12:53.969Z,99855.47
2023-01-10T15:15:24.650Z,99842.41
2023-01-10T15:17:52.219Z,99846.75
2023-01-10T15:20:20.287Z,99870.28
2023-01-10T15:22:50.757Z,99810.28
2023-01-10T15:25:30.303Z,99862.44
2023-01-10T15:27:58.497Z,99865.06
2023-01-10T15:30:26.889Z,99863.34
2023-01-10T15:32:55.010Z,99856.38
2023-01-10T15:35:27.425Z,99849.38
2023-01-10T15:38:05.252Z,99856.38
2023-01-10T15:40:34.101Z,99813.75
2023-01-10T15:43:12.377Z,99849.41
2023-01-10T15:45:40.077Z,99835.47
2023-01-10T15:48:27.776Z,99843.34
2023-01-10T15:50:55.889Z,99781.56
2023-01-10T15:53:40.038Z,99818.09
2023-01-10T15:56:10.525Z,99818.09
2023-01-10T15:58:38.170Z,99798.06
2023-01-10T16:01:06.093Z,99791.94
2023-01-10T16:03:35.584Z,99788.47
2023-01-10T16:06:04.787Z,99762.38
2023-01-10T16:08:35.147Z,99791.94
2023-01-10T16:11:04.328Z,99771.94
2023-01-10T16:13:33.064Z,99776.28
2023-01-10T16:16:03.108Z,99764.94
2023-01-10T16:18:30.701Z,99767.56
2023-01-10T16:20:59.403Z,99759.75
2023-01-10T16:23:29.441Z,99762.38
2023-01-10T16:25:59.213Z,99761.53
2023-01-10T16:28:28.878Z,99753.72
2023-01-10T16:30:56.520Z,99772.00
2023-01-10T16:33:26.205Z,99741.56
2023-01-10T16:35:54.514Z,99757.19
2023-01-10T16:38:22.354Z,99754.59
2023-01-10T16:40:51.145Z,99733.75
2023-01-10T16:43:19.205Z,99763.31
2023-01-10T16:45:46.985Z,99734.59
2023-01-10T16:48:14.802Z,99727.66
2023-01-10T16:50:42.690Z,99746.81
2023-01-10T16:53:12.025Z,99725.06
2023-01-10T16:55:42.034Z,99746.81
2023-01-10T16:58:10.155Z,99751.97
2023-01-10T17:00:39.396Z,99737.22
2023-01-10T17:03:10.127Z,99691.94
2023-01-10T17:05:38.120Z,99714.56
2023-01-10T17:08:06.461Z,99749.31
2023-01-10T17:10:35.121Z,99691.06
2023-01-10T17:13:03.198Z,99691.94
2023-01-10T17:15:31.492Z,99726.69
2023-01-10T17:18:00.656Z,99693.66
2023-01-10T17:20:30.624Z,99703.19
2023-01-10T17:22:58.466Z,99687.53
2023-01-10T17:25:26.278Z,99722.28
2023-01-10T17:27:54.072Z,99713.63
2023-01-10T17:30:21.958Z,99698.84
2023-01-10T17:32:49.672Z,99686.69
2023-01-10T17:35:18.875Z,99694.53
2023-01-10T17:37:49.708Z,99671.06
2023-01-10T17:40:17.611Z,99672.81
2023-01-10T17:42:45.340Z,99684.94
2023-01-10T17:45:13.041Z,99652.81
2023-01-10T17:47:40.846Z,99688.41
2023-01-10T17:50:09.073Z,99660.63
2023-01-10T17:52:38.187Z,99667.56
2023-01-10T17:55:07.562Z,99651.94
2023-01-10T17:57:38.369Z,99649.31
2023-01-10T18:00:07.195Z,99659.75
2023-01-10T18:02:35.156Z,99639.75
2023-01-10T18:05:02.974Z,99626.72
2023-01-10T18:07:30.619Z,99641.50
2023-01-10T18:10:00.217Z,99643.22
2023-01-10T18:12:27.816Z,99611.06
2023-01-10T18:14:55.620Z,99629.31
2023-01-10T18:17:23.348Z,99605.91
2023-01-10T18:19:51.206Z,99589.38
2023-01-10T18:22:37.672Z,99604.16
2023-01-10T18:25:07.840Z,99614.56
2023-01-10T18:27:36.236Z,99599.81
2023-01-10T18:30:04.543Z,99583.28
2023-01-10T18:32:33.275Z,99598.06
2023-01-10T18:35:01.195Z,99587.66
2023-01-10T18:37:29.007Z,99585.91
2023-01-10T18:39:56.900Z,99580.72
2023-01-10T18:42:26.017Z,99586.78
2023-01-10T18:44:54.005Z,99605.03
2023-01-10T18:47:21.833Z,99586.78
2023-01-10T18:49:49.756Z,99573.75
2023-01-10T18:52:17.734Z,99590.25
2023-01-10T18:54:45.494Z,99592.84
2023-01-10T18:57:13.274Z,99585.03
2023-01-10T18:59:42.583Z,99549.44
2023-01-10T19:02:11.865Z,99563.34
2023-01-10T19:04:39.706Z,99578.94
2023-01-10T19:07:07.691Z,99562.47
2023-01-10T19:09:35.516Z,99572.88
2023-01-10T19:12:04.139Z,99526.00
2023-01-10T19:14:32.016Z,99546.88
2023-01-10T19:17:01.129Z,99567.69
2023-01-10T19:19:28.722Z,99568.56
2023-01-10T19:21:58.958Z,99552.91
2023-01-10T19:24:28.807Z,99524.25
2023-01-10T19:26:56.520Z,99551.19
2023-01-10T19:29:24.541Z,99551.19
2023-01-10T19:31:53.110Z,99536.44
2023-01-10T19:34:32.777Z,99523.44
2023-01-10T19:37:00.554Z,99531.22
2023-01-10T19:39:28.361Z,99511.25
2023-01-10T19:41:58.570Z,99493.03
2023-01-10T19:44:26.384Z,99532.09
2023-01-10T19:46:54.287Z,99506.06
2023-01-10T19:49:23.994Z,99514.75
2023-01-10T19:51:53.620Z,99505.19
2023-01-10T19:54:21.423Z,99507.78
2023-01-10T19:56:49.129Z,99499.97
2023-01-10T20:01:52.912Z,99503.47
2023-01-10T20:04:20.847Z,99521.69
2023-01-10T20:06:50.010Z,99529.50
2023-01-10T20:09:17.628Z,99490.44
2023-01-10T20:11:46.623Z,99519.94
2023-01-10T20:14:15.311Z,99539.91
2023-01-10T20:16:43.244Z,99499.97
2023-01-10T20:19:12.147Z,99505.19
2023-01-10T20:21:40.304Z,99469.59
2023-01-10T20:24:13.730Z,99512.16
2023-01-10T20:26:41.433Z,99502.59
2023-01-10T20:29:09.287Z,99504.31
2023-01-10T20:31:37.349Z,99446.16
2023-01-10T20:34:05.091Z,99486.09
2023-01-10T20:36:32.779Z,99489.56
2023-01-10T20:39:00.443Z,99473.94
2023-01-10T20:41:30.098Z,99484.34
2023-01-10T20:43:58.539Z,99479.16
2023-01-10T20:46:27.095Z,99466.13
2023-01-10T20:48:55.270Z,99472.19
2023-01-10T20:51:23.723Z,99483.50
2023-01-10T20:53:52.682Z,99481.78
2023-01-10T20:56:22.216Z,99478.28
2023-01-10T20:58:51.247Z,99451.41
2023-01-10T21:01:33.176Z,99456.59
2023-01-10T21:04:01.789Z,99466.13
2023-01-10T21:06:29.766Z,99459.19
2023-01-10T21:08:57.636Z,99463.53
2023-01-10T21:11:25.323Z,99460.91
2023-01-10T21:13:54.210Z,99448.78
2023-01-10T21:16:22.446Z,99440.09
2023-01-10T21:18:50.568Z,99444.44
2023-01-10T21:21:19.213Z,99419.25
2023-01-10T21:23:46.980Z,99436.63
2023-01-10T21:26:15.294Z,99422.69
2023-01-10T21:28:46.408Z,99443.53
2023-01-10T21:31:16.206Z,99442.69
2023-01-10T21:33:44.148Z,99418.34
2023-01-10T21:36:13.462Z,99407.06
2023-01-10T21:38:41.454Z,99415.75
2023-01-10T21:41:10.041Z,99428.78
2023-01-10T21:43:38.656Z,99417.50
2023-01-10T21:46:06.799Z,99408.78
2023-01-10T21:48:35.889Z,99406.19
2023-01-10T21:51:03.896Z,99436.56
2023-01-10T21:53:31.805Z,99398.34
2023-01-10T21:55:59.943Z,99414.88
2023-01-10T21:58:27.630Z,99412.22
2023-01-10T22:00:57.227Z,99429.63
2023-01-10T22:03:24.928Z,99396.63
2023-01-10T22:05:54.049Z,99419.16
2023-01-10T22:08:21.675Z,99394.00
2023-01-10T22:10:49.800Z,99392.25
2023-01-10T22:13:18.594Z,99385.31
2023-01-10T22:15:46.216Z,99409.59
2023-01-10T22:18:13.790Z,99400.06
2023-01-10T22:20:44.794Z,99385.28
2023-01-10T22:23:13.813Z,99398.31
2023-01-10T22:25:41.354Z,99419.16
2023-01-10T22:28:08.946Z,99388.75
2023-01-10T22:30:36.506Z,99373.09
2023-01-10T22:33:04.275Z,99382.63
2023-01-10T22:35:32.079Z,99378.31
2023-01-10T22:37:59.686Z,99389.59
2023-01-10T22:40:28.594Z,99382.59
2023-01-10T22:42:56.306Z,99370.44
2023-01-10T22:45:23.850Z,99357.38
2023-01-10T22:47:51.468Z,99360.00
2023-01-10T22:50:19.228Z,99348.69
2023-01-10T22:52:48.981Z,99323.50
2023-01-10T22:55:16.960Z,99360.84
2023-01-10T22:57:47.730Z,99364.28
2023-01-10T23:00:15.996Z,99319.13
2023-01-10T23:02:43.661Z,99327.81
2023-01-10T23:05:11.478Z,99300.06
2023-01-10T23:07:39.020Z,99339.09
2023-01-10T23:10:20.479Z,99312.97
2023-01-10T23:12:56.202Z,99306.88
2023-01-10T23:15:23.811Z,99302.53
2023-01-10T23:17:51.342Z,99303.38
2023-01-10T23:20:19.183Z,99306.81
2023-01-10T23:22:46.765Z,99310.34
2023-01-10T23:25:14.329Z,99348.59
2023-01-10T23:27:41.925Z,99318.13
2023-01-10T23:30:12.280Z,99263.47
2023-01-10T23:32:39.871Z,99313.78
2023-01-10T23:35:08.062Z,99322.38
2023-01-10T23:37:35.647Z,99291.16
2023-01-10T23:40:03.775Z,99280.72
2023-01-10T23:42:31.350Z,99285.84
2023-01-10T23:44:59.240Z,99271.09
2023-01-10T23:47:28.137Z,99277.97
2023-01-10T23:49:55.764Z,99295.31
2023-01-10T23:52:23.331Z,99285.72
2023-01-10T23:54:50.970Z,99278.75
2023-01-10T23:57:18.641Z,99268.28
2023-01-10T23:59:46.215Z,99297.03
